createdAt,value
2018-04-12T00:00:02.458Z,999.86
2018-04-12T00:01:02.475Z,999.86
2018-04-12T00:02:02.493Z,999.87
2018-04-12T00:03:02.514Z,999.84
2018-04-12T00:04:02.533Z,999.86
2018-04-12T00:05:02.553Z,999.86
2018-04-12T00:06:02.573Z,999.83
2018-04-12T00:07:02.592Z,999.81
2018-04-12T00:08:02.617Z,999.81
2018-04-12T00:09:02.631Z,999.76
2018-04-12T00:10:02.654Z,999.79
2018-04-12T00:11:02.670Z,999.77
2018-04-12T00:12:02.690Z,999.79
2018-04-12T00:13:02.710Z,999.76
2018-04-12T00:14:02.730Z,999.77
2018-04-12T00:15:02.749Z,999.78
2018-04-12T00:16:02.768Z,999.78
2018-04-12T00:17:02.789Z,999.77
2018-04-12T00:18:02.806Z,999.77
2018-04-12T00:19:02.827Z,999.77
2018-04-12T00:20:02.846Z,999.77
2018-04-12T00:21:02.865Z,999.70
2018-04-12T00:22:02.885Z,999.73
2018-04-12T00:23:02.903Z,999.76
2018-04-12T00:24:02.925Z,999.74
2018-04-12T00:25:02.946Z,999.73
2018-04-12T00:26:02.962Z,999.76
2018-04-12T00:27:02.983Z,999.72
2018-04-12T00:28:03.002Z,999.70
2018-04-12T00:29:03.022Z,999.75
2018-04-12T00:30:03.040Z,999.68
2018-04-12T00:31:03.060Z,999.70
2018-04-12T00:32:03.081Z,999.71
2018-04-12T00:33:03.099Z,999.69
2018-04-12T00:34:03.118Z,999.74
2018-04-12T00:35:03.139Z,999.72
2018-04-12T00:36:03.157Z,999.69
2018-04-12T00:37:03.181Z,999.69
2018-04-12T00:38:03.195Z,999.63
2018-04-12T00:39:03.221Z,999.62
2018-04-12T00:40:03.235Z,999.63
2018-04-12T00:41:03.259Z,999.60
2018-04-12T00:42:03.273Z,999.56
2018-04-12T00:43:03.295Z,999.59
2018-04-12T00:44:03.313Z,999.58
2018-04-12T00:45:03.331Z,999.51
2018-04-12T00:46:03.349Z,999.46
2018-04-12T00:47:03.369Z,999.41
2018-04-12T00:48:03.394Z,999.48
2018-04-12T00:49:03.408Z,999.45
2018-04-12T00:50:03.428Z,999.49
2018-04-12T00:51:03.447Z,999.46
2018-04-12T00:52:03.467Z,999.44
2018-04-12T00:53:03.490Z,999.40
2018-04-12T00:54:03.504Z,999.47
2018-04-12T00:55:03.529Z,999.40
2018-04-12T00:56:03.544Z,999.39
2018-04-12T00:57:03.564Z,999.35
2018-04-12T00:58:03.581Z,999.44
2018-04-12T00:59:03.601Z,999.39
2018-04-12T01:00:03.622Z,999.42
2018-04-12T01:01:03.644Z,999.45
2018-04-12T01:02:03.659Z,999.47
2018-04-12T01:03:03.687Z,999.44
2018-04-12T01:04:03.699Z,999.44
2018-04-12T01:05:03.720Z,999.47
2018-04-12T01:06:03.737Z,999.45
2018-04-12T01:07:03.756Z,999.42
2018-04-12T01:08:03.776Z,999.43
2018-04-12T01:09:03.796Z,999.46
2018-04-12T01:10:03.814Z,999.47
2018-04-12T01:11:03.834Z,999.42
2018-04-12T01:12:03.853Z,999.45
2018-04-12T01:13:03.871Z,999.45
2018-04-12T01:14:03.891Z,999.47
2018-04-12T01:15:03.910Z,999.44
2018-04-12T01:16:03.929Z,999.43
2018-04-12T01:17:03.955Z,999.36
2018-04-12T01:18:03.968Z,999.37
2018-04-12T01:19:03.994Z,999.36
2018-04-12T01:20:04.006Z,999.38
2018-04-12T01:21:04.026Z,999.35
2018-04-12T01:22:04.047Z,999.34
2018-04-12T01:23:04.064Z,999.36
2018-04-12T01:24:04.085Z,999.31
2018-04-12T01:25:04.103Z,999.31
2018-04-12T01:26:04.134Z,999.32
2018-04-12T01:27:04.139Z,999.26
2018-04-12T01:28:04.159Z,999.27
2018-04-12T01:29:04.180Z,999.28
2018-04-12T01:30:04.199Z,999.28
2018-04-12T01:31:04.217Z,999.24
2018-04-12T01:32:04.236Z,999.29
2018-04-12T01:33:04.257Z,999.27
2018-04-12T01:34:04.274Z,999.22
2018-04-12T01:35:04.295Z,999.22
2018-04-12T01:36:04.313Z,999.18
2018-04-12T01:37:04.333Z,999.16
2018-04-12T01:38:04.351Z,999.17
2018-04-12T01:39:04.370Z,999.13
2018-04-12T01:40:04.391Z,999.12
2018-04-12T01:41:04.409Z,999.10
2018-04-12T01:42:04.427Z,999.10
2018-04-12T01:43:04.446Z,999.06
2018-04-12T01:44:04.466Z,999.10
2018-04-12T01:45:04.485Z,999.09
2018-04-12T01:46:04.504Z,999.08
2018-04-12T01:47:04.529Z,999.03
2018-04-12T01:48:04.545Z,999.05
2018-04-12T01:49:04.562Z,999.07
2018-04-12T01:50:04.580Z,999.08
2018-04-12T01:51:04.599Z,999.04
2018-04-12T01:52:04.618Z,998.98
2018-04-12T01:53:04.642Z,998.98
2018-04-12T01:54:04.657Z,999.05
2018-04-12T01:55:04.700Z,998.98
2018-04-12T01:56:04.696Z,998.97
2018-04-12T01:57:04.715Z,998.93
2018-04-12T01:58:04.733Z,998.91
2018-04-12T01:59:04.756Z,998.93
2018-04-12T02:00:04.772Z,998.91
2018-04-12T02:01:04.791Z,998.91
2018-04-12T02:02:04.812Z,998.92
2018-04-12T02:03:04.833Z,998.93
2018-04-12T02:04:04.848Z,998.87
2018-04-12T02:05:04.867Z,998.93
2018-04-12T02:06:04.885Z,998.93
2018-04-12T02:07:04.905Z,998.94
2018-04-12T02:08:04.931Z,998.93
2018-04-12T02:09:04.944Z,998.88
2018-04-12T02:10:04.966Z,998.84
2018-04-12T02:11:04.981Z,998.85
2018-04-12T02:12:05.001Z,998.78
2018-04-12T02:13:05.021Z,998.77
2018-04-12T02:14:05.039Z,998.76
2018-04-12T02:15:05.057Z,998.76
2018-04-12T02:16:05.077Z,998.76
2018-04-12T02:17:05.097Z,998.75
2018-04-12T02:18:05.116Z,998.74
2018-04-12T02:19:05.137Z,998.75
2018-04-12T02:20:05.154Z,998.71
2018-04-12T02:21:05.173Z,998.65
2018-04-12T02:22:05.192Z,998.64
2018-04-12T02:23:05.212Z,998.63
2018-04-12T02:24:05.230Z,998.68
2018-04-12T02:25:05.250Z,998.66
2018-04-12T02:26:05.267Z,998.65
2018-04-12T02:27:05.286Z,998.65
2018-04-12T02:28:05.307Z,998.62
2018-04-12T02:29:05.325Z,998.61
2018-04-12T02:30:05.344Z,998.61
2018-04-12T02:31:05.366Z,998.64
2018-04-12T02:32:05.381Z,998.59
2018-04-12T02:33:05.401Z,998.62
2018-04-12T02:34:05.421Z,998.62
2018-04-12T02:35:05.477Z,998.62
2018-04-12T02:36:05.457Z,998.63
2018-04-12T02:37:05.476Z,998.61
2018-04-12T02:38:05.495Z,998.59
2018-04-12T02:39:05.513Z,998.55
2018-04-12T02:40:05.533Z,998.53
2018-04-12T02:41:05.553Z,998.55
2018-04-12T02:42:05.570Z,998.52
2018-04-12T02:43:05.590Z,998.55
2018-04-12T02:44:05.608Z,998.53
2018-04-12T02:45:05.627Z,998.53
2018-04-12T02:46:05.645Z,998.52
2018-04-12T02:47:05.665Z,998.55
2018-04-12T02:48:05.687Z,998.58
2018-04-12T02:49:05.703Z,998.56
2018-04-12T02:50:05.726Z,998.56
2018-04-12T02:51:05.740Z,998.52
2018-04-12T02:52:05.759Z,998.50
2018-04-12T02:53:05.779Z,998.48
2018-04-12T02:54:05.796Z,998.48
2018-04-12T02:55:05.834Z,998.45
2018-04-12T02:56:05.837Z,998.48
2018-04-12T02:57:05.854Z,998.43
2018-04-12T02:58:05.872Z,998.47
2018-04-12T02:59:05.891Z,998.46
2018-04-12T03:00:06.214Z,998.51
2018-04-12T03:01:05.929Z,998.46
2018-04-12T03:02:05.946Z,998.51
2018-04-12T03:03:06.215Z,998.44
2018-04-12T03:04:05.985Z,998.41
2018-04-12T03:05:06.004Z,998.40
2018-04-12T03:06:06.222Z,998.41
2018-04-12T03:07:06.039Z,998.39
2018-04-12T03:08:06.060Z,998.43
2018-04-12T03:09:06.087Z,998.43
2018-04-12T03:10:06.096Z,998.44
2018-04-12T03:11:06.115Z,998.44
2018-04-12T03:12:06.133Z,998.40
2018-04-12T03:13:06.153Z,998.39
2018-04-12T03:14:06.172Z,998.39
2018-04-12T03:15:06.193Z,998.35
2018-04-12T03:16:06.209Z,998.35
2018-04-12T03:17:06.227Z,998.34
2018-04-12T03:18:06.245Z,998.27
2018-04-12T03:19:06.263Z,998.24
2018-04-12T03:20:06.283Z,998.21
2018-04-12T03:21:06.301Z,998.17
2018-04-12T03:22:06.319Z,998.16
2018-04-12T03:23:06.338Z,998.13
2018-04-12T03:24:06.357Z,998.12
2018-04-12T03:25:06.376Z,998.15
2018-04-12T03:26:06.393Z,998.14
2018-04-12T03:27:06.763Z,998.07
2018-04-12T03:28:06.733Z,998.08
2018-04-12T03:29:06.701Z,998.00
2018-04-12T03:30:06.471Z,998.00
2018-04-12T03:31:06.488Z,997.98
2018-04-12T03:32:06.506Z,998.00
2018-04-12T03:33:06.525Z,998.00
2018-04-12T03:34:06.542Z,998.05
2018-04-12T03:35:06.567Z,997.95
2018-04-12T03:36:06.580Z,997.99
2018-04-12T03:37:06.599Z,997.99
2018-04-12T03:38:06.618Z,997.94
2018-04-12T03:39:06.636Z,997.97
2018-04-12T03:40:06.655Z,997.94
2018-04-12T03:41:06.674Z,997.92
2018-04-12T03:42:06.737Z,997.98
2018-04-12T03:43:06.710Z,997.92
2018-04-12T03:44:06.730Z,997.92
2018-04-12T03:45:06.748Z,997.91
2018-04-12T03:46:06.765Z,997.92
2018-04-12T03:47:06.785Z,997.93
2018-04-12T03:48:06.804Z,997.88
2018-04-12T03:49:06.888Z,997.90
2018-04-12T03:50:06.841Z,997.89
2018-04-12T03:51:06.860Z,997.91
2018-04-12T03:52:06.882Z,997.88
2018-04-12T03:53:06.896Z,997.85
2018-04-12T03:54:06.914Z,997.89
2018-04-12T03:55:06.934Z,997.81
2018-04-12T03:56:06.952Z,997.83
2018-04-12T03:57:06.971Z,997.85
2018-04-12T03:58:06.988Z,997.84
2018-04-12T03:59:07.007Z,997.84
2018-04-12T04:00:07.027Z,997.86
2018-04-12T04:01:07.047Z,997.81
2018-04-12T04:02:07.063Z,997.78
2018-04-12T04:03:07.084Z,997.78
2018-04-12T04:04:07.101Z,997.78
2018-04-12T04:05:07.119Z,997.73
2018-04-12T04:06:07.137Z,997.78
2018-04-12T04:07:07.156Z,997.72
2018-04-12T04:08:07.175Z,997.75
2018-04-12T04:09:07.193Z,997.70
2018-04-12T04:10:07.211Z,997.73
2018-04-12T04:11:07.229Z,997.75
2018-04-12T04:12:07.248Z,997.76
2018-04-12T04:13:07.268Z,997.73
2018-04-12T04:14:07.285Z,997.72
2018-04-12T04:15:07.304Z,997.70
2018-04-12T04:16:07.323Z,997.77
2018-04-12T04:17:07.342Z,997.72
2018-04-12T04:18:07.359Z,997.75
2018-04-12T04:19:07.378Z,997.79
2018-04-12T04:20:07.398Z,997.76
2018-04-12T04:21:07.415Z,997.78
2018-04-12T04:22:07.433Z,997.73
2018-04-12T04:23:07.456Z,997.76
2018-04-12T04:24:07.471Z,997.74
2018-04-12T04:25:07.489Z,997.73
2018-04-12T04:26:07.508Z,997.70
2018-04-12T04:27:07.526Z,997.68
2018-04-12T04:28:07.544Z,997.65
2018-04-12T04:29:07.564Z,997.71
2018-04-12T04:30:07.581Z,997.62
2018-04-12T04:31:07.604Z,997.62
2018-04-12T04:32:07.618Z,997.63
2018-04-12T04:33:07.637Z,997.62
2018-04-12T04:34:07.656Z,997.64
2018-04-12T04:35:07.675Z,997.68
2018-04-12T04:36:07.693Z,997.65
2018-04-12T04:37:07.712Z,997.63
2018-04-12T04:38:07.731Z,997.64
2018-04-12T04:39:07.749Z,997.62
2018-04-12T04:40:07.767Z,997.64
2018-04-12T04:41:07.787Z,997.63
2018-04-12T04:42:07.804Z,997.67
2018-04-12T04:43:07.824Z,997.66
2018-04-12T04:44:07.841Z,997.64
2018-04-12T04:45:07.860Z,997.62
2018-04-12T04:46:07.878Z,997.63
2018-04-12T04:47:07.900Z,997.63
2018-04-12T04:48:07.918Z,997.64
2018-04-12T04:49:07.933Z,997.64
2018-04-12T04:50:07.953Z,997.65
2018-04-12T04:51:07.971Z,997.64
2018-04-12T06:54:10.315Z,997.10
2018-04-12T06:55:10.333Z,997.05
2018-04-12T06:56:10.353Z,997.05
2018-04-12T06:57:10.369Z,997.06
2018-04-12T06:58:10.392Z,997.04
2018-04-12T06:59:10.407Z,997.06
2018-04-12T07:00:10.427Z,997.07
2018-04-12T07:01:10.600Z,997.07
2018-04-12T07:02:10.465Z,997.00
2018-04-12T07:03:10.486Z,997.05
2018-04-12T07:04:10.508Z,997.02
2018-04-12T07:05:10.524Z,997.03
2018-04-12T07:06:10.546Z,997.01
2018-04-12T07:07:10.565Z,997.03
2018-04-12T07:08:10.585Z,997.04
2018-04-12T07:09:10.655Z,997.00
2018-04-12T07:10:10.622Z,996.98
2018-04-12T07:11:10.641Z,997.05
2018-04-12T07:12:10.660Z,997.02
2018-04-12T07:13:10.679Z,997.06
2018-04-12T07:14:10.701Z,997.10
2018-04-12T07:15:10.720Z,997.13
2018-04-12T07:16:10.741Z,997.12
2018-04-12T07:17:10.760Z,997.19
2018-04-12T07:18:10.778Z,997.15
2018-04-12T07:19:10.833Z,997.21
2018-04-12T07:20:10.817Z,997.21
2018-04-12T07:21:10.836Z,997.19
2018-04-12T07:22:10.856Z,997.19
2018-04-12T07:23:10.876Z,997.19
2018-04-12T07:24:10.897Z,997.24
2018-04-12T07:25:10.912Z,997.25
2018-04-12T07:26:10.932Z,997.18
2018-04-12T07:27:10.956Z,997.20
2018-04-12T07:28:10.970Z,997.22
2018-04-12T07:29:10.993Z,997.27
2018-04-12T07:30:11.010Z,997.30
2018-04-12T07:31:11.030Z,997.30
2018-04-12T07:32:11.051Z,997.31
2018-04-12T07:33:11.187Z,997.22
2018-04-12T07:34:11.092Z,997.24
2018-04-12T07:35:11.112Z,997.30
2018-04-12T07:36:11.187Z,997.28
2018-04-12T07:37:11.193Z,997.26
2018-04-12T07:38:11.263Z,997.34
2018-04-12T07:39:11.343Z,997.30
2018-04-12T07:40:11.234Z,997.32
2018-04-12T07:41:11.301Z,997.26
2018-04-12T07:42:11.271Z,997.33
2018-04-12T07:43:11.271Z,997.31
2018-04-12T07:44:11.288Z,997.37
2018-04-12T07:45:11.302Z,997.26
2018-04-12T07:46:11.321Z,997.34
2018-04-12T07:47:11.341Z,997.37
2018-04-12T07:48:11.362Z,997.27
2018-04-12T07:49:11.383Z,997.28
2018-04-12T07:50:11.403Z,997.22
2018-04-12T07:51:11.424Z,997.25
2018-04-12T07:52:11.443Z,997.27
2018-04-12T07:53:11.478Z,997.27
2018-04-12T07:54:11.482Z,997.29
2018-04-12T07:55:11.498Z,997.29
2018-04-12T07:56:11.521Z,997.32
2018-04-12T07:57:11.542Z,997.31
2018-04-12T07:58:11.558Z,997.31
2018-04-12T07:59:11.581Z,997.24
2018-04-12T08:00:11.601Z,997.23
2018-04-12T08:01:11.621Z,997.27
2018-04-12T08:02:11.637Z,997.30
2018-04-12T08:03:11.658Z,997.23
2018-04-12T08:04:11.676Z,997.22
2018-04-12T08:05:11.700Z,997.25
2018-04-12T08:06:11.721Z,997.27
2018-04-12T08:07:11.737Z,997.20
2018-04-12T08:08:11.757Z,997.22
2018-04-12T08:09:11.780Z,997.23
2018-04-12T08:10:11.798Z,997.24
2018-04-12T08:11:11.819Z,997.19
2018-04-12T08:12:11.839Z,997.16
2018-04-12T08:13:11.859Z,997.17
2018-04-12T08:14:11.878Z,997.17
2018-04-12T08:15:11.896Z,997.19
2018-04-12T08:16:11.923Z,997.13
2018-04-12T08:17:11.939Z,997.10
2018-04-12T08:18:11.955Z,997.07
2018-04-12T08:19:11.979Z,997.12
2018-04-12T08:20:11.996Z,997.18
2018-04-12T08:21:12.017Z,997.18
2018-04-12T08:22:12.035Z,997.15
2018-04-12T08:23:12.056Z,997.09
2018-04-12T08:24:12.077Z,997.09
2018-04-12T08:25:12.097Z,997.12
2018-04-12T08:26:12.119Z,997.17
2018-04-12T08:27:12.136Z,997.12
2018-04-12T08:28:12.160Z,997.16
2018-04-12T08:29:12.178Z,997.13
2018-04-12T08:30:12.196Z,997.15
2018-04-12T08:31:12.218Z,997.18
2018-04-12T08:32:12.239Z,997.17
2018-04-12T08:33:12.257Z,997.15
2018-04-12T08:34:12.277Z,997.17
2018-04-12T08:35:12.300Z,997.19
2018-04-12T08:36:12.669Z,997.11
2018-04-12T08:37:12.340Z,997.11
2018-04-12T08:38:12.361Z,997.12
2018-04-12T08:39:12.380Z,997.12
2018-04-12T08:40:12.400Z,997.14
2018-04-12T08:41:12.432Z,997.09
2018-04-12T08:42:12.437Z,997.08
2018-04-12T08:43:12.459Z,997.03
2018-04-12T08:44:12.481Z,997.03
2018-04-12T08:45:12.501Z,997.02
2018-04-12T08:46:12.521Z,997.00
2018-04-12T08:47:31.756Z,996.99
2018-04-12T08:48:12.560Z,996.94
2018-04-12T08:49:12.581Z,996.94
2018-04-12T08:50:12.599Z,996.96
2018-04-12T08:51:12.620Z,996.90
2018-04-12T08:52:12.641Z,996.92
2018-04-12T08:53:12.661Z,996.85
2018-04-12T08:54:12.681Z,996.82
2018-04-12T08:55:12.702Z,996.82
2018-04-12T08:56:12.722Z,996.72
2018-04-12T08:57:12.749Z,996.74
2018-04-12T08:58:12.762Z,996.71
2018-04-12T08:59:12.783Z,996.78
2018-04-12T09:00:12.803Z,996.69
2018-04-12T09:01:12.823Z,996.67
2018-04-12T09:02:12.842Z,996.72
2018-04-12T09:03:12.863Z,996.72
2018-04-12T09:04:12.882Z,996.66
2018-04-12T09:05:12.904Z,996.69
2018-04-12T09:06:12.924Z,996.64
2018-04-12T09:07:12.944Z,996.64
2018-04-12T09:08:12.970Z,996.63
2018-04-12T09:09:12.985Z,996.66
2018-04-12T09:10:13.004Z,996.63
2018-04-12T09:11:13.025Z,996.62
2018-04-12T09:12:13.103Z,996.64
2018-04-12T09:13:13.066Z,996.64
2018-04-12T09:14:13.084Z,996.60
2018-04-12T09:15:13.106Z,996.59
2018-04-12T09:16:13.128Z,996.56
2018-04-12T09:17:13.148Z,996.54
2018-04-12T09:18:13.167Z,996.51
2018-04-12T09:19:13.189Z,996.49
2018-04-12T09:20:13.223Z,996.52
2018-04-12T09:21:13.229Z,996.51
2018-04-12T09:22:13.248Z,996.51
2018-04-12T09:23:13.270Z,996.49
2018-04-12T09:24:13.290Z,996.50
2018-04-12T09:25:13.311Z,996.46
2018-04-12T09:26:13.331Z,996.49
2018-04-12T09:27:13.352Z,996.48
2018-04-12T09:28:13.373Z,996.49
2018-04-12T09:29:13.394Z,996.48
2018-04-12T09:30:13.414Z,996.47
2018-04-12T09:31:13.436Z,996.36
2018-04-12T09:32:13.456Z,996.26
2018-04-12T09:33:13.491Z,996.28
2018-04-12T09:34:13.498Z,996.22
2018-04-12T09:35:13.519Z,996.21
2018-04-12T09:36:13.541Z,996.17
2018-04-12T09:37:13.563Z,996.17
2018-04-12T09:38:13.590Z,996.15
2018-04-12T09:39:13.604Z,996.13
2018-04-12T09:40:13.625Z,996.14
2018-04-12T09:41:13.652Z,996.14
2018-04-12T09:42:13.667Z,996.11
2018-04-12T09:43:13.688Z,996.10
2018-04-12T09:44:13.728Z,996.11
2018-04-12T09:45:13.730Z,996.08
2018-04-12T09:46:13.809Z,996.11
2018-04-12T09:47:13.772Z,996.08
2018-04-12T09:48:13.794Z,996.05
2018-04-12T09:49:13.875Z,996.07
2018-04-12T09:50:13.835Z,996.07
2018-04-12T09:51:13.858Z,996.08
2018-04-12T09:52:13.880Z,996.03
2018-04-12T09:53:13.900Z,996.01
2018-04-12T09:54:13.920Z,995.99
2018-04-12T09:55:14.192Z,996.00
2018-04-12T09:56:13.963Z,995.91
2018-04-12T09:57:13.984Z,995.98
2018-04-12T09:58:14.005Z,995.95
2018-04-12T09:59:14.027Z,995.98
2018-04-12T10:00:14.098Z,996.00
2018-04-12T10:01:14.069Z,996.04
2018-04-12T10:02:14.090Z,996.00
2018-04-12T10:03:14.113Z,995.98
2018-04-12T10:04:14.133Z,995.99
2018-04-12T10:05:14.155Z,996.02
2018-04-12T10:06:14.175Z,995.97
2018-04-12T10:07:14.197Z,996.02
2018-04-12T10:08:14.233Z,996.07
2018-04-12T10:09:14.240Z,996.10
2018-04-12T10:10:14.260Z,996.06
2018-04-12T10:11:14.283Z,996.09
2018-04-12T10:12:14.304Z,996.00
2018-04-12T10:13:14.327Z,996.02
2018-04-12T10:14:14.348Z,995.98
2018-04-12T10:15:14.369Z,995.92
2018-04-12T10:16:14.395Z,995.91
2018-04-12T10:17:14.413Z,995.85
2018-04-12T10:18:14.467Z,995.90
2018-04-12T10:19:14.457Z,995.82
2018-04-12T10:20:14.478Z,995.78
2018-04-12T10:21:14.504Z,995.79
2018-04-12T10:22:14.521Z,995.78
2018-04-12T10:23:14.546Z,995.76
2018-04-12T10:24:14.564Z,995.70
2018-04-12T10:25:14.588Z,995.70
2018-04-12T10:26:14.609Z,995.65
2018-04-12T10:27:14.630Z,995.72
2018-04-12T10:28:14.668Z,995.63
2018-04-12T10:29:14.675Z,995.64
2018-04-12T10:30:14.696Z,995.66
2018-04-12T10:31:14.719Z,995.61
2018-04-12T10:32:14.740Z,995.59
2018-04-12T10:33:14.762Z,995.60
2018-04-12T10:34:14.783Z,995.68
2018-04-12T10:35:14.805Z,995.56
2018-04-12T10:36:14.827Z,995.68
2018-04-12T10:37:14.849Z,995.56
2018-04-12T10:38:14.870Z,995.62
2018-04-12T10:39:14.892Z,995.57
2018-04-12T10:40:14.915Z,995.42
2018-04-12T10:41:14.939Z,995.46
2018-04-12T10:42:14.958Z,995.47
2018-04-12T10:43:14.980Z,995.46
2018-04-12T10:44:15.002Z,995.49
2018-04-12T10:45:15.024Z,995.38
2018-04-12T10:46:15.045Z,995.49
2018-04-12T10:47:15.068Z,995.51
2018-04-12T10:48:15.092Z,995.53
2018-04-12T10:49:15.112Z,995.46
2018-04-12T10:50:15.134Z,995.53
2018-04-12T10:51:15.155Z,995.48
2018-04-12T10:52:15.177Z,995.54
2018-04-12T10:53:15.200Z,995.52
2018-04-12T10:54:15.222Z,995.58
2018-04-12T10:55:15.243Z,995.55
2018-04-12T10:56:15.267Z,995.51
2018-04-12T10:57:15.287Z,995.60
2018-04-12T10:58:15.308Z,995.59
2018-04-12T10:59:15.531Z,995.56
2018-04-12T11:00:15.358Z,995.52
2018-04-12T11:01:15.374Z,995.44
2018-04-12T11:02:15.396Z,995.43
2018-04-12T11:03:15.425Z,995.43
2018-04-12T11:04:15.441Z,995.40
2018-04-12T11:05:15.471Z,995.43
2018-04-12T11:06:15.486Z,995.37
2018-04-12T11:07:15.507Z,995.43
2018-04-12T11:08:15.532Z,995.39
2018-04-12T11:09:15.552Z,995.36
2018-04-12T11:10:15.575Z,995.38
2018-04-12T11:11:15.597Z,995.40
2018-04-12T11:12:15.680Z,995.31
2018-04-12T11:13:15.643Z,995.41
2018-04-12T11:14:15.665Z,995.51
2018-04-12T11:15:15.689Z,995.57
2018-04-12T11:16:15.711Z,995.54
2018-04-12T11:17:15.733Z,995.47
2018-04-12T11:18:15.773Z,995.55
2018-04-12T11:19:15.782Z,995.59
2018-04-12T11:20:15.801Z,995.58
2018-04-12T11:21:15.824Z,995.56
2018-04-12T11:22:15.847Z,995.62
2018-04-12T11:23:15.883Z,995.60
2018-04-12T11:24:15.908Z,995.64
2018-04-12T11:25:15.913Z,995.81
2018-04-12T11:26:15.933Z,995.77
2018-04-12T11:27:15.956Z,995.73
2018-04-12T11:28:15.978Z,995.79
2018-04-12T11:29:16.036Z,995.79
2018-04-12T11:30:16.024Z,995.80
2018-04-12T11:31:16.047Z,995.73
2018-04-12T11:32:16.069Z,995.70
2018-04-12T11:33:16.092Z,995.75
2018-04-12T11:34:16.138Z,995.67
2018-04-12T11:35:16.181Z,995.62
2018-04-12T11:36:16.160Z,995.59
2018-04-12T11:37:16.180Z,995.55
2018-04-12T11:38:16.203Z,995.59
2018-04-12T11:39:16.225Z,995.60
2018-04-12T11:40:16.247Z,995.61
2018-04-12T11:41:16.270Z,995.56
2018-04-12T11:42:16.293Z,995.60
2018-04-12T11:43:16.315Z,995.51
2018-04-12T11:44:16.336Z,995.55
2018-04-12T11:45:16.371Z,995.44
2018-04-12T11:46:16.382Z,995.57
2018-04-12T11:47:16.406Z,995.51
2018-04-12T11:48:16.430Z,995.42
2018-04-12T11:49:16.452Z,995.39
2018-04-12T11:50:16.479Z,995.43
2018-04-12T11:51:16.497Z,995.40
2018-04-12T11:52:16.520Z,995.37
2018-04-12T11:53:16.543Z,995.35
2018-04-12T11:54:16.565Z,995.40
2018-04-12T11:55:16.588Z,995.34
2018-04-12T11:56:16.611Z,995.36
2018-04-12T11:57:16.633Z,995.43
2018-04-12T11:58:16.660Z,995.36
2018-04-12T11:59:16.680Z,995.36
2018-04-12T12:00:16.701Z,995.41
2018-04-12T12:01:16.723Z,995.33
2018-04-12T12:02:16.756Z,995.34
2018-04-12T12:03:16.768Z,995.34
2018-04-12T12:04:16.790Z,995.39
2018-04-12T12:05:16.816Z,995.41
2018-04-12T12:06:16.835Z,995.43
2018-04-12T12:07:16.862Z,995.39
2018-04-12T12:08:16.881Z,995.50
2018-04-12T12:09:16.910Z,995.44
2018-04-12T12:10:16.927Z,995.47
2018-04-12T12:11:16.948Z,995.53
2018-04-12T12:12:16.972Z,995.53
2018-04-12T12:13:16.994Z,995.60
2018-04-12T12:14:17.016Z,995.62
2018-04-12T12:15:17.039Z,995.43
2018-04-12T12:16:17.061Z,995.44
2018-04-12T12:17:17.085Z,995.39
2018-04-12T12:18:17.107Z,995.37
2018-04-12T12:19:17.129Z,995.37
2018-04-12T12:20:17.156Z,995.36
2018-04-12T12:21:17.177Z,995.34
2018-04-12T12:22:17.198Z,995.32
2018-04-12T12:23:17.223Z,995.41
2018-04-12T12:24:17.244Z,995.32
2018-04-12T12:25:17.267Z,995.36
2018-04-12T12:26:17.289Z,995.39
2018-04-12T12:27:17.312Z,995.29
2018-04-12T12:28:17.335Z,995.35
2018-04-12T12:29:17.358Z,995.27
2018-04-12T12:30:17.384Z,995.35
2018-04-12T12:31:17.402Z,995.38
2018-04-12T12:32:17.426Z,995.27
2018-04-12T12:33:17.448Z,995.35
2018-04-12T12:34:17.470Z,995.37
2018-04-12T12:35:17.493Z,995.33
2018-04-12T12:36:17.516Z,995.32
2018-04-12T12:37:17.538Z,995.27
2018-04-12T12:38:17.561Z,995.23
2018-04-12T12:39:17.584Z,995.31
2018-04-12T12:40:17.606Z,995.28
2018-04-12T12:41:17.629Z,995.25
2018-04-12T12:42:17.652Z,995.22
2018-04-12T12:43:17.674Z,995.20
2018-04-12T12:44:17.700Z,995.26
2018-04-12T12:45:17.724Z,995.20
2018-04-12T12:46:17.744Z,995.21
2018-04-12T12:47:17.768Z,995.21
2018-04-12T12:48:17.787Z,995.28
2018-04-12T12:49:17.812Z,995.25
2018-04-12T12:50:17.835Z,995.28
2018-04-12T12:51:17.867Z,995.25
2018-04-12T12:52:17.878Z,995.21
2018-04-12T12:53:17.906Z,995.14
2018-04-12T12:54:17.924Z,995.16
2018-04-12T12:55:17.947Z,995.12
2018-04-12T12:56:17.972Z,995.13
2018-04-12T12:57:17.994Z,995.05
2018-04-12T12:58:18.018Z,995.00
2018-04-12T12:59:18.038Z,995.04
2018-04-12T13:00:18.062Z,995.00
2018-04-12T13:01:18.140Z,994.99
2018-04-12T13:02:18.106Z,994.96
2018-04-12T13:03:18.128Z,994.92
2018-04-12T13:04:18.152Z,994.96
2018-04-12T13:05:18.177Z,994.90
2018-04-12T13:06:18.196Z,994.89
2018-04-12T13:07:18.220Z,994.83
2018-04-12T13:08:18.243Z,994.84
2018-04-12T13:09:18.266Z,994.82
2018-04-12T13:10:18.289Z,994.81
2018-04-12T13:11:18.310Z,994.81
2018-04-12T13:12:18.333Z,994.81
2018-04-12T13:13:18.396Z,994.85
2018-04-12T13:14:18.377Z,994.83
2018-04-12T13:15:18.401Z,994.85
2018-04-12T13:16:18.423Z,994.84
2018-04-12T13:17:18.446Z,994.80
2018-04-12T13:18:18.468Z,994.77
2018-04-12T13:19:18.499Z,994.78
2018-04-12T13:20:18.515Z,994.75
2018-04-12T13:21:18.536Z,994.74
2018-04-12T13:22:18.557Z,994.75
2018-04-12T13:23:18.581Z,994.85
2018-04-12T13:24:18.603Z,994.78
2018-04-12T13:25:18.626Z,994.80
2018-04-12T13:26:18.682Z,994.90
2018-04-12T13:27:18.675Z,994.89
2018-04-12T13:28:18.693Z,994.94
2018-04-12T13:29:18.716Z,994.89
2018-04-12T13:30:18.742Z,994.92
2018-04-12T13:31:18.760Z,994.92
2018-04-12T13:32:18.783Z,994.97
2018-04-12T13:33:18.816Z,994.94
2018-04-12T13:34:18.828Z,994.99
2018-04-12T13:35:18.851Z,994.94
2018-04-12T13:36:18.874Z,994.98
2018-04-12T13:37:18.902Z,994.90
2018-04-12T13:38:18.918Z,994.86
2018-04-12T13:39:18.944Z,994.88
2018-04-12T13:40:18.968Z,994.88
2018-04-12T13:41:18.988Z,994.95
2018-04-12T13:42:19.010Z,994.86
2018-04-12T13:43:19.037Z,994.83
2018-04-12T13:44:19.106Z,994.82
2018-04-12T13:45:19.079Z,994.82
2018-04-12T13:46:19.101Z,994.74
2018-04-12T13:47:19.124Z,994.69
2018-04-12T13:48:19.147Z,994.73
2018-04-12T13:49:19.172Z,994.70
2018-04-12T13:50:19.193Z,994.70
2018-04-12T13:51:19.215Z,994.62
2018-04-12T13:52:19.238Z,994.60
2018-04-12T13:53:19.261Z,994.52
2018-04-12T13:54:19.283Z,994.48
2018-04-12T13:55:19.305Z,994.42
2018-04-12T13:56:19.329Z,994.42
2018-04-12T13:57:19.352Z,994.45
2018-04-12T13:58:19.374Z,994.53
2018-04-12T13:59:19.397Z,994.59
2018-04-12T14:00:19.421Z,994.65
2018-04-12T14:01:19.444Z,994.61
2018-04-12T14:02:19.467Z,994.67
2018-04-12T14:03:19.488Z,994.72
2018-04-12T14:04:19.512Z,994.76
2018-04-12T14:05:19.534Z,994.72
2018-04-12T14:06:19.556Z,994.73
2018-04-12T14:07:19.579Z,994.78
2018-04-12T14:08:19.603Z,994.74
2018-04-12T14:09:19.627Z,994.75
2018-04-12T14:10:19.649Z,994.73
2018-04-12T14:11:19.671Z,994.76
2018-04-12T14:12:19.694Z,994.75
2018-04-12T14:13:19.718Z,994.78
2018-04-12T14:14:19.740Z,994.78
2018-04-12T14:15:19.767Z,994.75
2018-04-12T14:16:19.787Z,994.79
2018-04-12T14:17:19.809Z,994.85
2018-04-12T14:18:19.832Z,994.81
2018-04-12T14:19:19.854Z,994.90
2018-04-12T14:20:19.883Z,994.79
2018-04-12T14:21:19.902Z,994.80
2018-04-12T14:22:19.923Z,994.78
2018-04-12T14:23:19.946Z,994.82
2018-04-12T14:24:19.975Z,994.82
2018-04-12T14:25:19.993Z,994.79
2018-04-12T14:26:20.016Z,994.76
2018-04-12T14:27:20.037Z,994.82
2018-04-12T14:28:20.062Z,994.76
2018-04-12T14:29:20.085Z,994.74
2018-04-12T14:30:20.109Z,994.76